createdAt,value
2023-09-05T00:12:01.791Z,85.78
2023-09-05T00:42:03.669Z,86.09
2023-09-05T01:12:05.649Z,86.84
2023-09-05T01:42:07.186Z,87.93
2023-09-05T02:12:10.102Z,87.70
2023-09-05T02:42:11.802Z,87.92
2023-09-05T03:12:13.614Z,89.27
2023-09-05T03:42:19.720Z,89.72
2023-09-05T04:12:21.546Z,90.17
2023-09-05T04:42:24.162Z,90.40
2023-09-05T05:12:26.340Z,91.58
2023-09-05T05:42:28.358Z,92.73
2023-09-05T06:12:31.491Z,94.01
2023-09-05T06:42:33.067Z,93.08
2023-09-05T07:12:35.057Z,88.78
2023-09-05T07:42:36.611Z,85.15
2023-09-05T08:12:39.560Z,81.24
2023-09-05T08:42:41.166Z,76.52
2023-09-05T09:12:43.373Z,73.54
2023-09-05T09:42:44.954Z,70.46
2023-09-05T10:12:47.758Z,64.25
2023-09-05T10:42:49.413Z,63.98
2023-09-05T11:12:51.289Z,61.30
2023-09-05T12:13:44.845Z,58.40
2023-09-05T12:43:46.891Z,56.49
2023-09-05T14:16:58.030Z,53.63
2023-09-05T15:17:45.892Z,53.18
2023-09-05T15:47:47.974Z,54.15
2023-09-05T16:17:50.402Z,56.83
2023-09-05T16:47:52.715Z,60.44
2023-09-05T18:24:11.176Z,67.27
2023-09-05T18:54:15.587Z,68.83
2023-09-05T19:24:19.007Z,70.67
2023-09-05T19:54:23.025Z,71.83
2023-09-05T20:24:26.221Z,73.33
2023-09-05T20:54:30.668Z,75.06
2023-09-05T21:24:34.075Z,76.36
2023-09-05T21:54:37.958Z,77.74
2023-09-05T22:24:41.048Z,78.96
2023-09-05T22:54:44.642Z,79.57
2023-09-05T23:24:47.877Z,80.19
2023-09-05T23:54:51.390Z,80.65
